Time;durP1;ratioP1;P1;durP2;ratioP2;P2;SDS_P1;SDS_P2;PMS_P1;PMS_P2;Temp;Humidity;BMP_temperature;BMP_pressure;BME280_temperature;BME280_humidity;BME280_pressure;Samples;Min_cycle;Max_cycle;Signal;HPM_P1;HPM_P2
2022/09/03 00:00:04;;;;;;;4.22;1.38;;;;;;;15.17;50.51;101227.53;5066657;28;20652;-60
2022/09/03 00:02:52;;;;;;;6.05;1.38;;;;;;;15.16;50.02;101225.84;5055308;28;20496;-62
2022/09/03 00:05:40;;;;;;;4.70;1.10;;;;;;;15.18;50.09;101227.47;5043106;28;20056;-61
2022/09/03 00:08:10;;;;;;;2.17;1.17;;;;;;;15.14;49.87;101225.97;5051751;28;20055;-61
2022/09/03 00:10:37;;;;;;;2.70;1.27;;;;;;;15.09;50.70;101228.09;5068819;28;20111;-63
2022/09/03 00:13:06;;;;;;;2.53;1.35;;;;;;;15.06;50.50;101220.34;5062939;28;20054;-61
2022/09/03 00:15:34;;;;;;;2.30;1.13;;;;;;;15.00;50.84;101219.91;5063234;28;20067;-61
2022/09/03 00:18:23;;;;;;;2.05;1.10;;;;;;;14.96;50.55;101221.91;5062013;28;20045;-62
2022/09/03 00:21:11;;;;;;;1.75;1.20;;;;;;;15.00;50.35;101222.56;5051262;28;20388;-61
2022/09/03 00:23:40;;;;;;;2.60;1.23;;;;;;;15.00;50.53;101226.06;5061731;28;20052;-61
2022/09/03 00:26:11;;;;;;;3.38;1.42;;;;;;;14.97;51.58;101223.59;5050354;28;20520;-60
2022/09/03 00:28:44;;;;;;;2.05;1.00;;;;;;;14.90;50.85;101217.88;5068156;28;20569;-62
2022/09/03 00:31:26;;;;;;;2.92;1.08;;;;;;;14.91;50.62;101226.69;5049494;28;20528;-61
2022/09/03 00:34:04;;;;;;;4.40;1.30;;;;;;;14.87;50.82;101225.19;5066738;28;20143;-62
2022/09/03 00:36:41;;;;;;;4.38;1.38;;;;;;;14.83;51.00;101229.84;5050946;28;20056;-61
2022/09/03 00:39:13;;;;;;;4.03;1.02;;;;;;;14.78;50.79;101220.50;5059391;28;20044;-62
2022/09/03 00:41:52;;;;;;;7.55;1.17;;;;;;;14.77;50.91;101219.66;5043196;28;20051;-62
2022/09/03 00:44:44;;;;;;;3.03;1.05;;;;;;;14.75;51.53;101216.25;5066710;28;20531;-61
2022/09/03 00:47:23;;;;;;;3.78;1.00;;;;;;;14.66;51.46;101217.72;5049696;28;20055;-62
2022/09/03 00:50:17;;;;;;;2.08;0.80;;;;;;;14.65;52.17;101216.03;5050454;28;20504;-61
2022/09/03 00:52:59;;;;;;;4.38;1.08;;;;;;;14.68;51.69;101218.47;5022077;28;20048;-62
2022/09/03 00:55:34;;;;;;;3.67;1.00;;;;;;;14.70;51.52;101221.00;5047285;28;20059;-63
2022/09/03 00:58:08;;;;;;;;;;;;;;;14.61;52.13;101216.31;5065264;28;20102;-61
2022/09/03 01:00:38;;;;;;;2.55;1.20;;;;;;;14.54;52.09;101209.72;5055176;28;19920;-61
2022/09/03 01:03:12;;;;;;;1.85;1.13;;;;;;;14.58;52.76;101213.88;5039536;28;20060;-61
2022/09/03 01:05:45;;;;;;;2.70;1.35;;;;;;;14.51;52.26;101208.16;5062942;28;20136;-61
2022/09/03 01:08:30;;;;;;;2.50;1.27;;;;;;;14.52;51.95;101212.47;5067209;28;20065;-60
2022/09/03 01:11:16;;;;;;;2.80;1.15;;;;;;;14.51;51.94;101205.50;5060431;28;20568;-62
2022/09/03 01:14:01;;;;;;;2.47;1.30;;;;;;;14.52;52.41;101206.34;5047549;28;20040;-61
2022/09/03 01:16:41;;;;;;;1.77;1.20;;;;;;;14.53;51.71;101208.03;5047851;28;20436;-63
2022/09/03 01:19:27;;;;;;;2.17;0.95;;;;;;;14.53;51.75;101205.38;5050118;28;20381;-63
2022/09/03 01:22:09;;;;;;;2.85;1.10;;;;;;;14.53;51.53;101205.38;5047770;28;20909;-63
2022/09/03 01:24:58;;;;;;;3.67;1.10;;;;;;;14.50;52.09;101200.28;5061012;28;20044;-61
2022/09/03 01:27:29;;;;;;;2.33;1.30;;;;;;;14.52;51.85;101209.00;5050655;28;20087;-62
2022/09/03 01:30:17;;;;;;;2.63;1.30;;;;;;;14.48;52.12;101199.50;5067201;28;20059;-61
2022/09/03 01:33:01;;;;;;;4.88;1.30;;;;;;;14.38;52.82;101202.75;5063000;28;20136;-62
2022/09/03 01:35:36;;;;;;;5.18;1.10;;;;;;;14.34;52.73;101197.78;5051516;28;20516;-63
2022/09/03 01:38:30;;;;;;;3.42;1.20;;;;;;;14.30;52.90;101191.81;5050718;28;20053;-62
2022/09/03 01:44:25;;;;;;;2.58;1.02;;;;;;;14.28;53.71;101195.53;5047356;28;20276;-62
2022/09/03 01:47:05;;;;;;;1.98;1.20;;;;;;;14.23;53.15;101187.88;5063717;28;20505;-60
2022/09/03 01:50:00;;;;;;;3.10;1.25;;;;;;;14.19;53.29;101184.59;5035872;28;20046;-63
2022/09/03 01:53:02;;;;;;;3.15;1.33;;;;;;;14.23;52.98;101190.53;5056123;28;20057;-61
2022/09/03 01:55:43;;;;;;;2.90;1.27;;;;;;;14.25;53.13;101199.22;5036068;28;20513;-61
2022/09/03 01:58:19;;;;;;;3.40;1.00;;;;;;;14.25;53.04;101191.28;5047825;28;20048;-61
2022/09/03 02:00:50;;;;;;;2.58;1.20;;;;;;;14.26;53.28;101200.91;5041603;28;20053;-61
2022/09/03 02:03:18;;;;;;;3.53;1.38;;;;;;;14.22;53.51;101195.91;5045975;28;20060;-62
2022/09/03 02:05:46;;;;;;;1.38;1.08;;;;;;;14.18;53.32;101190.84;5047591;28;20535;-62
2022/09/03 02:08:13;;;;;;;5.18;1.05;;;;;;;14.21;53.29;101194.22;5058280;28;20524;-62
2022/09/03 02:10:46;;;;;;;2.35;1.00;;;;;;;14.19;52.99;101200.47;5061404;28;20512;-61
2022/09/03 02:13:26;;;;;;;4.28;1.13;;;;;;;14.12;52.91;101193.88;5056691;28;20152;-61
2022/09/03 02:15:55;;;;;;;2.13;1.30;;;;;;;14.12;53.34;101201.81;5046935;28;20044;-61
2022/09/03 02:18:25;;;;;;;4.60;1.20;;;;;;;14.13;53.59;101198.19;5038820;28;20140;-63
2022/09/03 02:20:53;;;;;;;5.35;1.30;;;;;;;14.06;54.78;101210.16;5044383;28;20053;-62
2022/09/03 02:23:21;;;;;;;3.95;1.08;;;;;;;13.99;55.47;101203.53;5059362;28;20131;-62
2022/09/03 02:25:57;;;;;;;1.45;0.90;;;;;;;13.97;53.79;101199.31;5056287;28;20052;-60
2022/09/03 02:28:25;;;;;;;4.70;1.25;;;;;;;14.01;53.72;101200.81;5042936;28;20056;-61
2022/09/03 02:30:53;;;;;;;5.28;1.70;;;;;;;13.98;54.26;101201.00;5043953;28;20507;-62
2022/09/03 02:33:20;;;;;;;3.45;1.38;;;;;;;13.98;54.08;101201.84;5044345;28;20045;-60
2022/09/03 02:35:47;;;;;;;3.38;1.27;;;;;;;13.97;54.27;101204.59;5060598;28;20049;-63
2022/09/03 02:38:20;;;;;;;5.15;1.25;;;;;;;13.97;54.12;101199.31;5062022;28;20049;-61
2022/09/03 02:40:47;;;;;;;2.78;1.65;;;;;;;13.93;54.66;101198.66;5063730;28;20398;-62
2022/09/03 02:43:22;;;;;;;4.97;1.33;;;;;;;13.91;54.08;101195.22;5070865;28;20144;-60
2022/09/03 02:45:55;;;;;;;2.13;1.20;;;;;;;13.85;54.20;101199.13;5062358;28;20044;-61
2022/09/03 02:48:23;;;;;;;3.45;1.40;;;;;;;13.88;54.21;101193.66;5050299;28;20048;-63
2022/09/03 02:50:50;;;;;;;4.55;1.23;;;;;;;13.90;53.76;101199.69;5053335;28;20052;-61
2022/09/03 02:53:18;;;;;;;3.00;1.48;;;;;;;13.97;53.70;101197.50;5061675;28;20067;-60
2022/09/03 02:55:45;;;;;;;3.20;1.50;;;;;;;13.93;53.34;101201.28;5046688;28;20067;-62
2022/09/03 02:58:13;;;;;;;4.82;1.25;;;;;;;13.93;53.69;101201.28;5068122;28;20065;-61
2022/09/03 03:00:40;;;;;;;5.38;1.08;;;;;;;13.84;54.15;101202.72;5062843;28;20063;-62
2022/09/03 03:03:07;;;;;;;3.50;1.00;;;;;;;13.82;54.67;101199.31;5053977;28;20468;-60
2022/09/03 03:05:48;;;;;;;4.43;1.58;;;;;;;13.75;54.84;101203.31;5069162;28;20056;-61
2022/09/03 03:08:20;;;;;;;5.15;1.40;;;;;;;13.73;55.03;101199.03;5071551;28;20084;-60
2022/09/03 03:10:48;;;;;;;3.42;1.20;;;;;;;13.72;54.42;101200.00;5055478;28;20048;-62
2022/09/03 03:13:15;;;;;;;3.78;1.05;;;;;;;13.71;54.74;101195.66;5070263;28;20505;-61
2022/09/03 03:15:43;;;;;;;4.68;1.80;;;;;;;13.67;54.46;101198.50;5062104;28;20377;-61
2022/09/03 03:18:13;;;;;;;1.73;1.13;;;;;;;13.70;54.29;101196.63;5072096;28;20150;-63
2022/09/03 03:20:40;;;;;;;5.88;1.67;;;;;;;13.64;55.07;101193.41;5072151;28;20055;-61
2022/09/03 03:23:08;;;;;;;3.80;1.52;;;;;;;13.61;55.08;101198.03;5069356;28;20053;-62
2022/09/03 03:25:37;;;;;;;2.70;1.10;;;;;;;13.58;55.56;101200.88;5071946;28;20052;-62
2022/09/03 03:28:05;;;;;;;1.98;1.17;;;;;;;13.51;55.64;101197.78;5067822;28;20087;-61
2022/09/03 03:30:33;;;;;;;3.63;1.55;;;;;;;13.47;55.86;101206.84;5064358;28;20049;-62
2022/09/03 03:33:00;;;;;;;4.50;1.33;;;;;;;13.49;55.15;101207.56;5069181;28;20056;-62
2022/09/03 03:35:27;;;;;;;3.17;1.60;;;;;;;13.50;56.21;101206.63;5064415;28;20428;-65
2022/09/03 03:37:57;;;;;;;3.33;1.50;;;;;;;13.40;56.94;101203.69;5055066;28;20051;-62
2022/09/03 03:40:24;;;;;;;2.80;1.42;;;;;;;13.38;55.64;101200.31;5045701;28;20227;-61
2022/09/03 03:42:52;;;;;;;2.47;1.15;;;;;;;13.44;55.24;101204.38;5070362;28;20074;-61
2022/09/03 03:45:19;;;;;;;2.78;1.15;;;;;;;13.39;55.40;101206.44;5066762;28;20513;-61
2022/09/03 03:47:46;;;;;;;3.00;1.33;;;;;;;13.40;55.63;101213.44;5069032;28;20044;-62
2022/09/03 03:50:14;;;;;;;3.25;1.27;;;;;;;13.36;55.92;101220.69;5060267;28;20053;-61
2022/09/03 03:52:41;;;;;;;2.92;1.08;;;;;;;13.32;57.34;101220.97;5061536;28;20052;-61
2022/09/03 03:55:08;;;;;;;4.80;1.40;;;;;;;13.29;56.09;101222.03;5046506;28;20044;-62
2022/09/03 03:57:35;;;;;;;3.88;1.88;;;;;;;13.30;55.50;101217.59;5063582;28;20056;-62
2022/09/03 04:00:03;;;;;;;5.20;1.80;;;;;;;13.30;56.04;101212.31;5075083;28;20055;-62
2022/09/03 04:02:30;;;;;;;3.10;1.30;;;;;;;13.35;55.07;101212.88;5076450;28;20049;-61
2022/09/03 04:05:03;;;;;;;4.80;1.50;;;;;;;13.37;54.82;101221.53;5071162;28;20045;-61
2022/09/03 04:07:30;;;;;;;2.05;1.27;;;;;;;13.41;54.93;101205.38;5065245;28;20045;-62
2022/09/03 04:10:00;;;;;;;5.93;1.40;;;;;;;13.44;55.05;101209.66;5064553;28;20063;-60
2022/09/03 04:12:27;;;;;;;3.03;1.80;;;;;;;13.45;55.22;101205.22;5063886;28;21107;-60
2022/09/03 04:14:54;;;;;;;6.05;1.30;;;;;;;13.47;55.88;101201.53;5068892;28;20060;-61
2022/09/03 04:17:21;;;;;;;2.17;1.25;;;;;;;13.45;55.52;101202.56;5067808;28;20424;-60
2022/09/03 04:19:51;;;;;;;2.95;1.42;;;;;;;13.43;57.20;101208.81;5068296;28;20044;-62
2022/09/03 04:22:19;;;;;;;2.63;1.45;;;;;;;13.40;56.71;101209.00;5067337;28;20420;-63
2022/09/03 04:24:46;;;;;;;5.38;1.63;;;;;;;13.42;55.78;101208.91;5068855;28;20061;-62
2022/09/03 04:27:13;;;;;;;5.78;1.92;;;;;;;13.38;56.64;101215.34;5050522;28;20063;-61
2022/09/03 04:29:40;;;;;;;2.65;1.52;;;;;;;13.36;56.79;101204.84;5058732;28;20060;-61
2022/09/03 04:34:54;;;;;;;;;;;;;;;13.32;56.68;101205.97;5061222;28;20067;-62
2022/09/03 04:37:21;;;;;;;5.10;1.83;;;;;;;13.26;57.68;101205.50;5070196;28;19928;-60
2022/09/03 04:39:48;;;;;;;3.60;1.90;;;;;;;13.26;57.36;101203.69;5065539;28;20679;-62
2022/09/03 04:42:15;;;;;;;5.07;1.70;;;;;;;13.25;58.31;101214.38;5070011;28;20433;-62
2022/09/03 04:44:42;;;;;;;4.57;1.80;;;;;;;13.21;57.94;101207.53;5059918;28;20040;-61
2022/09/03 04:47:10;;;;;;;4.80;1.58;;;;;;;13.21;57.62;101215.47;5068866;28;20056;-62
2022/09/03 04:49:39;;;;;;;4.57;1.55;;;;;;;13.24;56.92;101199.44;5062621;28;20044;-63
2022/09/03 04:52:06;;;;;;;5.18;1.70;;;;;;;13.23;57.77;101205.69;5059971;28;20079;-61
2022/09/03 04:54:33;;;;;;;3.63;1.67;;;;;;;13.20;58.46;101204.06;5064523;28;20059;-62
2022/09/03 04:57:00;;;;;;;2.65;1.52;;;;;;;13.21;57.43;101207.53;5063921;28;20053;-62
2022/09/03 04:59:27;;;;;;;7.13;1.48;;;;;;;13.25;56.96;101209.94;5068429;28;20377;-61
2022/09/03 05:01:55;;;;;;;5.75;1.48;;;;;;;13.29;56.94;101213.25;5069577;28;20048;-62
2022/09/03 05:04:22;;;;;;;4.80;1.50;;;;;;;13.32;57.26;101213.88;5059754;28;20041;-61
2022/09/03 05:06:49;;;;;;;2.45;1.48;;;;;;;13.36;58.58;101206.63;5070423;28;20458;-63
2022/09/03 05:09:17;;;;;;;7.95;1.95;;;;;;;13.35;57.91;101216.34;5058397;28;20068;-61
2022/09/03 05:11:44;;;;;;;2.50;1.48;;;;;;;13.38;59.59;101216.19;5069531;28;20055;-61
2022/09/03 05:14:11;;;;;;;13.27;2.10;;;;;;;13.42;57.76;101211.56;5066141;28;20124;-60
2022/09/03 05:16:38;;;;;;;2.03;1.23;;;;;;;13.48;57.13;101211.16;5069718;28;20048;-60
2022/09/03 05:19:06;;;;;;;4.32;2.17;;;;;;;13.52;57.21;101211.84;5067142;28;20054;-61
2022/09/03 05:21:37;;;;;;;5.55;2.15;;;;;;;13.48;59.49;101216.47;5060000;28;20088;-61
2022/09/03 05:24:04;;;;;;;3.75;1.67;;;;;;;13.43;57.89;101210.59;5065674;28;20048;-61
2022/09/03 05:26:35;;;;;;;4.65;1.80;;;;;;;13.49;59.36;101218.16;5061532;28;20088;-61
2022/09/03 05:29:07;;;;;;;2.90;1.42;;;;;;;13.46;58.08;101226.25;5064204;28;20047;-61
2022/09/03 05:31:37;;;;;;;3.97;1.85;;;;;;;13.46;60.22;101223.63;5060033;28;20147;-61
2022/09/03 05:34:05;;;;;;;5.00;1.75;;;;;;;13.41;58.99;101226.56;5065989;28;20044;-61
2022/09/03 05:36:35;;;;;;;2.83;1.63;;;;;;;13.50;58.07;101219.00;5062368;28;20123;-62
2022/09/03 05:39:04;;;;;;;3.22;1.40;;;;;;;13.59;58.45;101227.22;5059793;28;20053;-61
2022/09/03 05:41:32;;;;;;;4.35;1.88;;;;;;;13.67;58.38;101234.69;5063525;28;20536;-61
2022/09/03 05:44:00;;;;;;;3.00;1.80;;;;;;;13.68;59.06;101226.63;5060554;28;20057;-61
2022/09/03 05:46:32;;;;;;;2.95;1.33;;;;;;;13.68;58.18;101223.16;5064895;28;20063;-62
2022/09/03 05:49:01;;;;;;;2.67;1.45;;;;;;;13.73;60.03;101228.16;5060257;28;20134;-62
2022/09/03 05:51:29;;;;;;;4.40;2.03;;;;;;;13.71;59.87;101230.91;5061933;28;20057;-60
2022/09/03 05:53:56;;;;;;;6.80;1.80;;;;;;;13.72;59.37;101223.81;5068687;28;20046;-60
2022/09/03 05:56:24;;;;;;;4.18;1.83;;;;;;;13.71;60.00;101228.25;5062382;28;20744;-61
2022/09/03 05:58:54;;;;;;;2.83;1.58;;;;;;;13.72;61.05;101226.47;5060748;28;20059;-60
2022/09/03 06:01:30;;;;;;;3.55;1.80;;;;;;;13.70;60.80;101225.72;5051313;28;20049;-61
2022/09/03 06:04:01;;;;;;;2.72;1.42;;;;;;;13.64;60.28;101229.56;5055910;28;20048;-60
2022/09/03 06:06:31;;;;;;;5.25;1.80;;;;;;;13.66;59.73;101220.59;5060775;28;20215;-60
2022/09/03 06:09:19;;;;;;;7.82;2.15;;;;;;;13.75;61.00;101224.47;5059568;28;20492;-59
2022/09/03 06:11:49;;;;;;;2.95;1.70;;;;;;;13.81;60.30;101232.03;5063075;28;20032;-60
2022/09/03 06:14:19;;;;;;;6.05;1.75;;;;;;;13.91;59.97;101227.88;5061265;28;20049;-61
2022/09/03 06:16:51;;;;;;;4.90;1.75;;;;;;;14.01;59.90;101219.34;5060937;28;20135;-60
2022/09/03 06:19:19;;;;;;;4.95;1.80;;;;;;;14.10;59.78;101224.06;5052902;28;20071;-60
2022/09/03 06:21:46;;;;;;;2.08;1.42;;;;;;;14.18;59.89;101232.31;5060480;28;20049;-61
2022/09/03 06:24:19;;;;;;;3.83;1.90;;;;;;;14.23;59.03;101224.09;5061534;28;20075;-61
2022/09/03 06:26:47;;;;;;;2.08;1.67;;;;;;;14.28;59.31;101227.31;5062746;28;20064;-58
2022/09/03 06:29:14;;;;;;;5.32;1.40;;;;;;;14.34;59.37;101221.59;5066235;28;20063;-62
2022/09/03 06:31:41;;;;;;;4.63;1.88;;;;;;;14.40;59.20;101221.19;5058832;28;20506;-59
2022/09/03 06:34:09;;;;;;;2.67;1.48;;;;;;;14.50;59.02;101229.41;5060379;28;20413;-60
2022/09/03 06:36:40;;;;;;;2.88;1.70;;;;;;;14.53;58.91;101226.56;5063636;28;20690;-61
2022/09/03 06:39:07;;;;;;;2.50;1.77;;;;;;;14.56;60.70;101218.44;5060000;28;20063;-62
2022/09/03 06:41:34;;;;;;;6.30;1.55;;;;;;;14.54;60.08;101228.28;5064209;28;20052;-60
2022/09/03 06:44:10;;;;;;;5.15;1.50;;;;;;;14.59;59.67;101221.75;5061630;28;20056;-62
2022/09/03 06:46:38;;;;;;;2.53;1.42;;;;;;;14.66;59.62;101220.38;5066239;28;20136;-62
2022/09/03 06:49:07;;;;;;;1.92;1.40;;;;;;;14.75;59.03;101226.00;5055995;28;20128;-60
2022/09/03 06:51:35;;;;;;;5.50;1.92;;;;;;;14.76;60.15;101231.19;5063784;28;20037;-61
2022/09/03 06:54:07;;;;;;;5.35;1.75;;;;;;;14.73;60.65;101231.41;5065061;28;20501;-60
2022/09/03 06:56:35;;;;;;;3.38;1.85;;;;;;;14.75;58.97;101224.19;5060860;28;20498;-60
2022/09/03 06:59:11;;;;;;;4.68;1.85;;;;;;;14.77;59.95;101221.44;5062954;28;20052;-61
2022/09/03 07:01:40;;;;;;;3.75;1.40;;;;;;;14.86;59.47;101229.66;5061200;28;20754;-61
2022/09/03 07:04:12;;;;;;;2.50;1.58;;;;;;;14.99;58.88;101221.69;5061139;28;20056;-62
2022/09/03 07:06:41;;;;;;;6.93;2.08;;;;;;;15.11;58.18;101226.16;5065469;28;20040;-62
2022/09/03 07:09:09;;;;;;;4.15;1.58;;;;;;;15.22;58.60;101235.19;5063544;28;20513;-61
2022/09/03 07:11:44;;;;;;;3.25;1.92;;;;;;;15.23;60.18;101224.50;5057713;28;20092;-62
2022/09/03 07:14:12;;;;;;;3.28;2.03;;;;;;;15.30;59.37;101230.22;5062941;28;20067;-64
2022/09/03 07:16:40;;;;;;;2.92;1.50;;;;;;;15.38;58.75;101223.41;5060000;28;20049;-61
2022/09/03 07:19:08;;;;;;;4.82;1.70;;;;;;;15.49;59.58;101220.03;5065077;28;20071;-61
2022/09/03 07:21:36;;;;;;;2.33;1.25;;;;;;;15.61;58.00;101220.97;5062067;28;20057;-60
2022/09/03 07:24:04;;;;;;;5.57;2.00;;;;;;;15.70;58.70;101223.84;5056701;28;20064;-61
2022/09/03 07:26:34;;;;;;;4.35;1.63;;;;;;;15.81;57.77;101227.56;5068337;28;20370;-61
2022/09/03 07:29:01;;;;;;;1.92;1.38;;;;;;;15.87;57.63;101235.06;5060234;28;20060;-60
2022/09/03 07:31:32;;;;;;;3.33;1.48;;;;;;;15.92;57.51;101233.78;5070135;28;20047;-59
2022/09/03 07:34:10;;;;;;;4.60;1.48;;;;;;;16.00;57.42;101240.34;5070047;28;20049;-61
2022/09/03 07:36:42;;;;;;;2.38;1.40;;;;;;;16.06;57.14;101226.63;5068863;28;20128;-61
2022/09/03 07:39:10;;;;;;;4.82;1.90;;;;;;;16.11;57.35;101238.59;5064218;28;20053;-61
2022/09/03 07:41:38;;;;;;;3.15;1.45;;;;;;;16.23;56.64;101236.88;5068092;28;20138;-60
2022/09/03 07:44:07;;;;;;;10.48;2.30;;;;;;;16.30;56.84;101230.16;5065353;28;20053;-59
2022/09/03 07:46:36;;;;;;;2.65;1.25;;;;;;;16.37;56.56;101236.72;5063517;28;20044;-60
2022/09/03 07:49:05;;;;;;;5.45;1.60;;;;;;;16.45;56.37;101236.16;5064830;28;20053;-60
2022/09/03 07:51:34;;;;;;;3.95;1.55;;;;;;;16.52;56.29;101239.19;5057613;28;20109;-61
2022/09/03 07:54:05;;;;;;;3.85;1.50;;;;;;;16.60;55.97;101240.31;5066430;28;20052;-62
2022/09/03 07:56:34;;;;;;;5.00;1.83;;;;;;;16.65;56.15;101240.81;5064927;28;20048;-61
2022/09/03 07:59:02;;;;;;;5.57;2.03;;;;;;;16.74;56.27;101241.97;5060791;28;20405;-61
2022/09/03 08:01:31;;;;;;;2.17;1.58;;;;;;;16.80;55.85;101238.03;5050053;28;20476;-59
2022/09/03 08:03:59;;;;;;;2.35;1.80;;;;;;;16.86;55.75;101245.53;5060245;28;20048;-60
2022/09/03 08:06:28;;;;;;;3.80;1.58;;;;;;;17.00;55.57;101245.34;5049903;28;20420;-61
2022/09/03 08:08:57;;;;;;;2.60;1.33;;;;;;;17.11;55.39;101240.06;5062074;28;20041;-60
2022/09/03 08:11:33;;;;;;;8.38;1.60;;;;;;;17.20;55.27;101243.81;5066225;28;20041;-61
2022/09/03 08:14:06;;;;;;;3.08;1.33;;;;;;;17.24;54.97;101247.09;5062034;28;20064;-60
2022/09/03 08:16:41;;;;;;;7.70;1.40;;;;;;;17.25;55.00;101248.81;5064014;28;20041;-60
2022/09/03 08:19:10;;;;;;;6.10;2.08;;;;;;;17.28;54.52;101244.06;5063205;28;20365;-61
2022/09/03 08:21:40;;;;;;;8.93;2.05;;;;;;;17.34;54.43;101240.09;5063575;28;20069;-58
2022/09/03 08:24:07;;;;;;;6.60;1.58;;;;;;;17.41;54.44;101243.97;5063298;28;20601;-62
2022/09/03 08:26:37;;;;;;;2.72;1.63;;;;;;;17.45;54.86;101237.44;5063894;28;20119;-62
2022/09/03 08:29:04;;;;;;;4.45;1.60;;;;;;;17.41;54.80;101246.63;5049426;28;20056;-62
2022/09/03 08:31:32;;;;;;;3.15;1.58;;;;;;;17.43;54.68;101242.06;5059552;28;20083;-62
2022/09/03 08:34:05;;;;;;;2.88;1.65;;;;;;;17.46;54.30;101239.13;5064377;28;20060;-61
2022/09/03 08:36:34;;;;;;;3.63;2.00;;;;;;;17.50;54.60;101240.59;5063223;28;20544;-61
2022/09/03 08:39:06;;;;;;;6.15;1.50;;;;;;;17.51;54.47;101236.94;5063786;28;20048;-61
2022/09/03 08:41:51;;;;;;;7.05;2.05;;;;;;;17.51;54.58;101228.97;5070164;28;20053;-61
2022/09/03 08:44:33;;;;;;;2.80;1.45;;;;;;;17.50;54.30;101237.09;5057447;28;20436;-61
2022/09/03 08:47:10;;;;;;;3.80;1.25;;;;;;;17.56;54.17;101231.25;5062655;28;20678;-61
2022/09/03 08:49:51;;;;;;;5.63;1.20;;;;;;;17.64;54.02;101229.69;5063554;28;20048;-62
2022/09/03 08:52:23;;;;;;;4.57;1.80;;;;;;;17.71;54.30;101230.06;5066804;28;20544;-61
2022/09/03 08:54:51;;;;;;;4.55;1.90;;;;;;;17.79;54.01;101219.69;5028846;28;20052;-62
2022/09/03 08:57:19;;;;;;;3.65;2.03;;;;;;;17.86;54.05;101225.38;5046866;28;20052;-59
2022/09/03 08:59:52;;;;;;;3.50;1.80;;;;;;;17.90;53.89;101224.16;5060407;28;20420;-61
2022/09/03 09:02:29;;;;;;;3.38;1.27;;;;;;;17.97;53.99;101212.03;5044898;28;20481;-61
2022/09/03 09:05:15;;;;;;;5.40;1.63;;;;;;;18.02;54.07;101217.00;5060096;28;20044;-63
2022/09/03 09:07:52;;;;;;;7.05;1.52;;;;;;;18.06;53.94;101221.13;5048202;28;20049;-62
2022/09/03 09:10:25;;;;;;;2.33;1.55;;;;;;;18.13;53.85;101220.47;5062012;28;20049;-62
2022/09/03 09:13:24;;;;;;;2.70;1.23;;;;;;;18.22;53.71;101221.53;5056938;28;20056;-61
2022/09/03 09:16:14;;;;;;;3.40;1.60;;;;;;;18.32;53.35;101218.97;5050771;28;20052;-60
2022/09/03 09:19:03;;;;;;;2.28;1.17;;;;;;;18.39;52.81;101210.34;5066642;28;20070;-61
2022/09/03 09:21:40;;;;;;;4.78;1.65;;;;;;;18.45;52.62;101203.66;5046283;28;20163;-60
2022/09/03 09:24:18;;;;;;;3.22;1.40;;;;;;;18.53;52.10;101206.53;5046209;28;20071;-62
2022/09/03 09:26:45;;;;;;;2.70;1.10;;;;;;;18.61;51.96;101195.25;5046245;28;20040;-61
2022/09/03 09:29:13;;;;;;;2.72;1.30;;;;;;;18.65;52.04;101189.53;5062522;28;20056;-62
2022/09/03 09:31:43;;;;;;;5.57;1.33;;;;;;;18.72;51.75;101192.53;5047444;28;20044;-62
2022/09/03 09:34:10;;;;;;;2.97;1.27;;;;;;;18.79;51.45;101198.22;5064068;28;20385;-61
2022/09/03 09:36:52;;;;;;;3.85;1.23;;;;;;;18.88;51.30;101184.94;5063492;28;20041;-62
2022/09/03 09:39:20;;;;;;;2.10;1.20;;;;;;;18.98;51.24;101185.00;5060606;28;20049;-62
2022/09/03 09:41:58;;;;;;;4.15;1.35;;;;;;;19.00;50.93;101185.69;5059895;28;20048;-63
2022/09/03 09:44:26;;;;;;;7.72;1.45;;;;;;;19.03;50.64;101187.28;5055909;28;20063;-62
2022/09/03 09:47:03;;;;;;;2.85;1.63;;;;;;;19.12;50.73;101184.66;5044599;28;20040;-62
2022/09/03 09:49:34;;;;;;;5.28;1.27;;;;;;;19.20;50.31;101178.66;5060573;28;20060;-61
2022/09/03 09:52:05;;;;;;;2.47;1.20;;;;;;;19.26;49.05;101183.47;5063169;28;20052;-60
2022/09/03 09:54:32;;;;;;;2.50;1.10;;;;;;;19.36;48.98;101183.50;5049190;28;20064;-61
2022/09/03 09:57:02;;;;;;;2.10;1.02;;;;;;;19.41;48.78;101187.50;5061803;28;20469;-61
2022/09/03 09:59:30;;;;;;;5.30;1.08;;;;;;;19.51;48.83;101186.69;5060028;28;20053;-60
2022/09/03 10:02:10;;;;;;;4.78;1.23;;;;;;;19.57;49.03;101189.66;5059500;28;20064;-62
2022/09/03 10:04:42;;;;;;;3.70;1.55;;;;;;;19.64;48.60;101187.31;5061054;28;20075;-61
2022/09/03 10:07:26;;;;;;;2.05;1.10;;;;;;;19.76;47.56;101178.19;5064012;28;20056;-62
2022/09/03 10:10:02;;;;;;;3.78;1.55;;;;;;;19.86;47.25;101187.13;5065148;22;20508;-68
2022/09/03 10:12:57;;;;;;;2.67;1.45;;;;;;;19.93;46.63;101184.72;5009250;28;20076;-68
2022/09/03 10:15:51;;;;;;;4.68;1.13;;;;;;;20.01;46.10;101176.03;5011963;28;20084;-67
2022/09/03 10:18:54;;;;;;;2.95;1.33;;;;;;;20.05;45.08;101166.75;5021646;28;20060;-68
2022/09/03 10:21:27;;;;;;;3.45;1.20;;;;;;;20.12;45.94;101171.38;5011486;28;20524;-68
2022/09/03 10:24:15;;;;;;;3.13;1.20;;;;;;;20.24;44.73;101172.94;5025867;28;20053;-68
2022/09/03 10:26:44;;;;;;;4.03;1.38;;;;;;;20.33;44.27;101168.59;5025837;28;20054;-68
2022/09/03 10:29:17;;;;;;;3.78;1.23;;;;;;;20.41;43.65;101162.56;5025796;28;20461;-68
2022/09/03 10:32:18;;;;;;;5.07;1.20;;;;;;;20.54;42.87;101163.16;4998887;28;20059;-68
2022/09/03 10:35:11;;;;;;;4.05;1.10;;;;;;;20.68;42.38;101170.72;5020580;28;20613;-68
2022/09/03 10:38:06;;;;;;;2.58;1.15;;;;;;;20.84;41.98;101162.09;4996118;28;20534;-67
2022/09/03 10:40:38;;;;;;;1.83;0.98;;;;;;;20.99;41.35;101155.31;5026077;28;20057;-68
2022/09/03 10:43:28;;;;;;;4.72;1.98;;;;;;;21.16;40.78;101155.53;5020757;28;20053;-68
2022/09/03 10:46:04;;;;;;;7.50;1.20;;;;;;;21.20;41.17;101149.75;5022939;28;20049;-67
2022/09/03 10:48:52;;;;;;;3.45;1.08;;;;;;;21.23;40.82;101160.16;5023912;28;20570;-67
2022/09/03 10:51:25;;;;;;;3.47;1.35;;;;;;;21.30;40.30;101159.56;5008065;28;20046;-68
2022/09/03 10:54:27;;;;;;;4.40;1.10;;;;;;;21.34;39.99;101161.00;5010621;28;20045;-68
2022/09/03 10:57:06;;;;;;;5.65;1.35;;;;;;;21.24;40.63;101151.13;5017599;28;20397;-68
2022/09/03 10:59:50;;;;;;;5.53;1.23;;;;;;;21.19;40.55;101148.06;5019554;28;20054;-68
2022/09/03 11:02:32;;;;;;;5.80;1.27;;;;;;;21.26;40.95;101140.31;5019048;28;20065;-67
2022/09/03 11:05:16;;;;;;;1.95;1.10;;;;;;;21.39;41.45;101137.28;5007139;28;20054;-67
2022/09/03 11:07:48;;;;;;;4.30;1.20;;;;;;;21.45;40.69;101137.56;5013517;28;20045;-67
2022/09/03 11:10:28;;;;;;;3.30;1.30;;;;;;;21.56;41.09;101123.09;5027586;28;20058;-67
2022/09/03 11:12:57;;;;;;;2.88;1.17;;;;;;;21.87;39.82;101134.34;5024177;28;20144;-68
2022/09/03 11:15:29;;;;;;;2.25;1.15;;;;;;;22.03;39.03;101125.63;5030880;28;20136;-67
2022/09/03 11:18:19;;;;;;;1.70;1.10;;;;;;;22.10;38.46;101126.69;5009251;28;20617;-67
2022/09/03 11:20:48;;;;;;;3.15;1.40;;;;;;;22.18;38.57;101125.97;5013284;28;20439;-68
2022/09/03 11:23:16;;;;;;;2.03;0.95;;;;;;;22.22;38.83;101117.47;5026049;28;20057;-67
2022/09/03 11:25:52;;;;;;;4.30;1.20;;;;;;;22.21;38.64;101121.16;5031219;28;20053;-68
2022/09/03 11:28:37;;;;;;;13.18;1.60;;;;;;;22.15;39.03;101118.22;4992689;28;20046;-68
2022/09/03 11:31:16;;;;;;;3.08;1.40;;;;;;;22.17;38.11;101111.72;5025755;28;20570;-66
2022/09/03 11:33:48;;;;;;;3.08;1.40;;;;;;;22.22;37.87;101114.78;5025520;28;20053;-67
2022/09/03 11:36:25;;;;;;;3.05;1.10;;;;;;;22.32;38.47;101119.22;5013407;28;20148;-67
2022/09/03 11:38:52;;;;;;;2.28;1.10;;;;;;;22.50;38.43;101110.16;5025008;28;20050;-68
2022/09/03 11:41:26;;;;;;;4.65;1.30;;;;;;;22.55;37.70;101112.34;5030413;28;20056;-67
2022/09/03 11:43:53;;;;;;;3.30;1.20;;;;;;;22.51;37.97;101097.56;5002262;28;20080;-68
2022/09/03 11:46:20;;;;;;;1.80;1.10;;;;;;;22.45;38.10;101100.88;5021104;28;20062;-68
2022/09/03 11:48:48;;;;;;;1.95;1.20;;;;;;;22.41;38.46;101104.88;5027432;28;20046;-67
2022/09/03 11:51:34;;;;;;;4.72;1.30;;;;;;;22.38;37.87;101091.75;5019899;28;20053;-67
2022/09/03 11:54:06;;;;;;;2.40;1.13;;;;;;;22.30;38.14;101099.78;5026364;28;20049;-66
2022/09/03 11:56:35;;;;;;;2.17;1.20;;;;;;;22.42;37.94;101099.34;5023140;28;20054;-66
2022/09/03 11:59:06;;;;;;;2.65;1.23;;;;;;;22.36;38.80;101093.78;5026348;28;20107;-67